N6DQX Weather Reports


Display with metric or nautical units.
time (UTC)temp
F
wind
direction
speed
MPH
gust
MPH
rain 1hr
in
rain 24hr
in
rain mn
in
humidity
%
barometer
mb
20190918181504 61 193 2.0 6.0 0.00 0.11 0.01 55 1012.4
20190918181004 61 192 0.0 3.0 0.00 0.11 0.01 54 1012.4
20190918180504 61 192 1.0 3.0 0.00 0.12 0.01 52 1012.4
20190918180003 61 192 3.0 7.0 0.00 0.12 0.01 55 1012.4
20190918175503 61 197 1.0 7.0 0.00 0.13 0.01 55 1012.5
20190918175003 61 205 5.0 9.0 0.00 0.13 0.01 53 1012.5
20190918174504 61 208 6.0 9.0 0.00 0.13 0.01 57 1012.5
20190918174004 60 216 6.0 12.0 0.00 0.13 0.01 58 1012.5
20190918173503 59 199 0.0 3.0 0.00 0.13 0.01 59 1012.5
20190918173003 59 199 2.0 7.0 0.00 0.14 0.01 57 1012.5
20190918172503 59 199 5.0 8.0 0.00 0.14 0.01 60 1012.5
20190918172003 59 193 3.0 7.0 0.00 0.14 0.01 60 1012.5
20190918171503 58 192 3.0 6.0 0.00 0.14 0.01 63 1012.6
20190918171004 58 192 2.0 8.0 0.00 0.14 0.01 67 1012.6
20190918170503 58 192 5.0 8.0 0.00 0.14 0.01 64 1012.5
20190918170003 58 193 5.0 10.0 0.00 0.14 0.01 64 1012.4
20190918165504 57 193 1.0 6.0 0.00 0.14 0.01 70 1012.5
20190918165003 57 193 1.0 5.0 0.00 0.14 0.01 70 1012.5
20190918164503 56 193 1.0 7.0 0.00 0.14 0.01 73 1012.6
20190918164004 56 193 2.0 7.0 0.00 0.14 0.01 73 1012.5
20190918163503 54 193 3.0 7.0 0.00 0.14 0.01 76 1012.5
20190918163003 54 193 1.0 7.0 0.00 0.14 0.01 76 1012.5
20190918162504 53 193 4.0 7.0 0.00 0.14 0.01 77 1012.5
20190918162004 53 193 1.0 7.0 0.00 0.14 0.01 78 1012.5
20190918161503 53 193 3.0 8.0 0.00 0.14 0.01 81 1012.4
20190918161003 52 202 5.0 7.0 0.00 0.14 0.01 82 1012.4
20190918160503 52 213 3.0 7.0 0.00 0.14 0.01 84 1012.4
20190918160003 51 213 5.0 7.0 0.00 0.14 0.01 85 1012.4
20190918155503 50 215 1.0 8.0 0.00 0.14 0.01 88 1012.4
20190918155003 49 215 5.0 9.0 0.00 0.14 0.01 90 1012.4
20190918154503 48 225 3.0 6.0 0.00 0.14 0.01 91 1012.4
20190918154003 47 227 3.0 6.0 0.00 0.14 0.01 93 1012.4
20190918153503 46 227 1.0 3.0 0.00 0.14 0.01 94 1012.5
20190918153003 46 227 0.0 3.0 0.00 0.14 0.01 94 1012.5
20190918152504 45 227 0.0 3.0 0.00 0.14 0.01 94 1012.5
20190918152004 44 227 0.0 3.0 0.00 0.14 0.01 94 1012.5
20190918151503 43 227 0.0 0.0 0.00 0.14 0.01 94 1012.6
20190918151003 43 227 0.0 3.0 0.00 0.14 0.01 93 1012.6
20190918150503 43 227 0.0 3.0 0.00 0.14 0.01 93 1012.5
20190918150003 43 227 2.0 3.0 0.00 0.14 0.01 93 1012.5
20190918145503 43 227 0.0 0.0 0.00 0.14 0.01 93 1012.6
20190918145003 43 227 0.0 0.0 0.00 0.14 0.01 93 1012.4
20190918144503 42 227 0.0 0.0 0.00 0.14 0.01 93 1012.4
20190918144003 42 227 0.0 0.0 0.00 0.14 0.01 93 1012.4
20190918143503 42 227 0.0 0.0 0.00 0.14 0.01 93 1012.3
20190918143004 42 227 0.0 0.0 0.00 0.14 0.01 92 1012.3
20190918142503 42 227 0.0 0.0 0.00 0.14 0.01 92 1012.4
20190918142003 42 227 0.0 0.0 0.00 0.14 0.01 92 1012.4
20190918141503 42 227 0.0 0.0 0.00 0.14 0.01 92 1012.3
20190918141004 43 227 0.0 0.0 0.00 0.14 0.01 92 1012.3
20190918140504 43 227 0.0 0.0 0.00 0.14 0.01 92 1012.4
20190918140004 43 227 0.0 0.0 0.00 0.14 0.01 92 1012.3
20190918135504 43 227 0.0 0.0 0.00 0.14 0.01 92 1012.3
20190918135003 43 227 0.0 0.0 0.00 0.14 0.01 93 1012.2
20190918134503 43 227 0.0 0.0 0.00 0.14 0.01 93 1012.1
20190918134003 44 227 0.0 0.0 0.00 0.14 0.01 93 1012.0
20190918133503 44 227 0.0 0.0 0.00 0.14 0.01 93 1011.9
20190918133004 44 227 0.0 0.0 0.00 0.14 0.01 94 1011.9
20190918132503 44 227 1.0 3.0 0.00 0.14 0.01 94 1012.0
20190918132003 44 227 3.0 7.0 0.00 0.14 0.01 93 1011.9
20190918131504 43 227 5.0 10.0 0.00 0.14 0.01 93 1011.8
20190918131003 43 236 4.0 8.0 0.00 0.14 0.01 93 1011.8
20190918130503 43 236 5.0 7.0 0.00 0.14 0.01 92 1011.7
20190918130003 43 236 3.0 7.0 0.00 0.14 0.01 92 1011.7
20190918125503 42 236 2.0 5.0 0.00 0.14 0.01 92 1011.6
20190918125003 43 236 5.0 7.0 0.00 0.14 0.01 92 1011.6
20190918124503 43 250 3.0 8.0 0.00 0.14 0.01 91 1011.6
20190918124004 43 267 0.0 3.0 0.00 0.14 0.01 92 1011.6
20190918123504 43 267 1.0 3.0 0.00 0.14 0.01 92 1011.6
20190918123003 43 267 1.0 5.0 0.00 0.14 0.01 92 1011.5
20190918122503 43 268 4.0 8.0 0.00 0.14 0.01 92 1011.3
20190918122003 44 325 2.0 6.0 0.00 0.14 0.01 91 1011.4
20190918121504 44 332 0.0 0.0 0.00 0.14 0.01 92 1011.4
20190918121004 44 332 0.0 0.0 0.00 0.14 0.01 91 1011.5
20190918120503 44 332 0.0 0.0 0.00 0.14 0.01 91 1011.5
20190918120003 44 332 0.0 0.0 0.00 0.14 0.01 91 1011.5
20190918115503 44 332 0.0 0.0 0.00 0.14 0.01 91 1011.6
20190918115003 44 332 0.0 0.0 0.00 0.14 0.01 91 1011.6
20190918114504 44 332 0.0 0.0 0.00 0.14 0.01 90 1011.7
20190918114004 45 332 0.0 0.0 0.00 0.14 0.01 90 1011.6
20190918113503 45 332 0.0 0.0 0.00 0.14 0.01 90 1011.7
20190918113003 45 332 0.0 0.0 0.00 0.14 0.01 90 1011.7
20190918112503 46 332 0.0 0.0 0.00 0.14 0.01 90 1011.7
20190918112004 46 332 0.0 0.0 0.00 0.14 0.01 90 1011.7
20190918111504 46 332 0.0 0.0 0.00 0.14 0.01 90 1011.7
20190918111004 46 332 0.0 0.0 0.00 0.14 0.01 90 1011.7
20190918110503 46 332 0.0 0.0 0.00 0.14 0.01 90 1011.7
20190918110003 46 332 0.0 0.0 0.00 0.14 0.01 90 1011.7
20190918105503 47 332 0.0 0.0 0.00 0.14 0.01 90 1011.7
20190918105003 47 332 0.0 0.0 0.00 0.14 0.01 90 1011.8
20190918104503 47 332 0.0 0.0 0.00 0.14 0.01 90 1011.7
20190918104004 47 332 0.0 0.0 0.00 0.14 0.01 90 1011.7
20190918103504 47 332 0.0 0.0 0.00 0.14 0.01 90 1011.7
20190918103004 47 332 0.0 0.0 0.00 0.14 0.01 90 1011.7
20190918102505 47 332 0.0 0.0 0.00 0.14 0.01 89 1011.6
20190918102004 47 332 0.0 0.0 0.00 0.14 0.01 89 1011.5
20190918101503 48 332 0.0 0.0 0.00 0.14 0.01 89 1011.4
20190918101003 48 332 0.0 0.0 0.00 0.14 0.01 89 1011.5
20190918100503 48 332 0.0 0.0 0.00 0.14 0.01 89 1011.4
20190918100004 48 332 0.0 0.0 0.00 0.14 0.01 89 1011.5
20190918095503 48 332 0.0 0.0 0.00 0.14 0.01 89 1011.7
20190918095003 48 332 0.0 0.0 0.00 0.14 0.01 89 1011.7
20190918094505 48 333 2.0 5.0 0.00 0.14 0.01 89 1011.7
20190918094004 48 337 0.0 3.0 0.00 0.14 0.01 89 1011.7
20190918093504 48 337 0.0 0.0 0.00 0.14 0.01 89 1011.8
20190918093004 48 337 0.0 0.0 0.00 0.14 0.01 89 1011.8
20190918092503 48 337 0.0 0.0 0.00 0.14 0.01 88 1011.8
20190918092004 48 337 0.0 0.0 0.00 0.14 0.01 87 1011.7
20190918091506 49 338 0.0 0.0 0.00 0.14 0.01 87 1011.6
20190918091004 49 338 0.0 0.0 0.00 0.14 0.01 87 1011.8
20190918090503 49 337 0.0 0.0 0.00 0.14 0.01 86 1011.9
20190918090005 49 338 0.0 0.0 0.01 0.14 0.01 85 1012.0
20190918085503 49 338 0.0 0.0 0.01 0.14 0.01 85 1012.0
20190918085003 50 338 0.0 0.0 0.01 0.14 0.01 85 1012.0
20190918084504 50 338 0.0 0.0 0.01 0.14 0.01 85 1012.0
20190918084004 50 338 0.0 0.0 0.01 0.14 0.01 85 1012.1
20190918083504 50 338 0.0 0.0 0.01 0.14 0.01 85 1012.1
20190918083003 50 338 0.0 0.0 0.01 0.14 0.01 85 1012.3
20190918082503 50 338 0.0 0.0 0.01 0.14 0.01 85 1012.2
20190918082003 51 338 0.0 3.0 0.01 0.14 0.01 84 1012.3
20190918081504 51 338 1.0 7.0 0.01 0.14 0.01 84 1012.4
20190918081003 51 343 2.0 7.0 0.01 0.14 0.01 83 1012.4
20190918080503 51 344 0.0 3.0 0.01 0.14 0.01 81 1012.6
20190918080004 51 345 0.0 3.0 0.00 0.13 0.00 80 1012.6
20190918075504 51 345 0.0 5.0 0.00 0.13 0.00 80 1012.4
20190918075004 52 346 1.0 3.0 0.00 0.13 0.00 80 1012.3
20190918074503 52 346 0.0 0.0 0.00 0.13 0.00 80 1012.1
20190918074003 52 346 0.0 2.0 0.00 0.13 0.00 79 1012.0
20190918073504 52 346 0.0 0.0 0.00 0.13 0.00 80 1011.9
20190918073003 52 346 0.0 0.0 0.00 0.13 0.00 80 1011.8
20190918072504 52 346 0.0 0.0 0.00 0.13 0.00 80 1011.8
20190918072003 52 346 0.0 0.0 0.00 0.13 0.00 80 1011.7
20190918071503 52 346 1.0 5.0 0.00 0.13 0.00 80 1011.8
20190918071003 53 347 5.0 8.0 0.00 0.13 0.00 81 1011.9
20190918070503 53 345 2.0 8.0 0.00 0.13 0.00 81 1011.9
20190918070004 53 317 5.0 8.0 0.00 0.13 0.00 82 1011.8
20190918065504 53 205 2.0 5.0 0.00 0.13 0.13 82 1011.6
20190918065004 53 205 1.0 3.0 0.00 0.13 0.13 81 1011.5
20190918064004 53 205 0.0 0.0 0.00 0.13 0.13 81 1011.6
20190918063505 53 205 1.0 6.0 0.00 0.13 0.13 80 1011.6
20190918063004 53 203 0.0 0.0 0.00 0.13 0.13 80 1011.7
20190918062504 53 203 0.0 3.0 0.00 0.13 0.13 79 1011.6
20190918062004 53 202 1.0 7.0 0.00 0.13 0.13 79 1011.5
20190918061504 54 200 2.0 8.0 0.00 0.13 0.13 80 1011.5
20190918061004 54 189 6.0 12.0 0.00 0.13 0.13 79 1011.5
20190918060504 53 198 3.0 10.0 0.00 0.13 0.13 79 1011.5
20190918060004 53 197 5.0 13.0 0.00 0.13 0.13 79 1011.5
20190918055504 53 199 10.0 20.0 0.00 0.13 0.13 79 1011.4
20190918055004 53 189 8.0 18.0 0.00 0.13 0.13 80 1011.4
20190918054504 53 180 10.0 20.0 0.00 0.13 0.13 80 1011.3
20190918054005 53 185 5.0 13.0 0.00 0.13 0.13 80 1011.3
20190918053504 53 186 9.0 18.0 0.00 0.13 0.13 80 1011.3
20190918053004 53 184 8.0 15.0 0.00 0.13 0.13 80 1011.4
20190918052504 54 198 8.0 12.0 0.00 0.13 0.13 79 1011.4
20190918052005 54 200 5.0 10.0 0.00 0.13 0.13 78 1011.4
20190918051503 54 206 6.0 12.0 0.00 0.13 0.13 78 1011.5
20190918051004 54 194 5.0 13.0 0.00 0.13 0.13 78 1011.5
20190918050504 54 175 6.0 18.0 0.00 0.13 0.13 77 1011.5
20190918050004 54 176 13.0 22.0 0.00 0.13 0.13 77 1011.5
20190918045504 54 171 10.0 18.0 0.00 0.13 0.13 77 1011.4
20190918045004 54 168 9.0 18.0 0.00 0.13 0.13 78 1011.3
20190918044504 54 176 10.0 18.0 0.00 0.13 0.13 78 1011.4
20190918044004 54 177 7.0 15.0 0.00 0.13 0.13 79 1011.4
20190918043504 54 181 7.0 16.0 0.00 0.13 0.13 79 1011.3
20190918043004 55 168 5.0 14.0 0.00 0.13 0.13 79 1011.3
20190918042504 55 177 9.0 16.0 0.00 0.13 0.13 78 1011.4
20190918042004 55 167 9.0 15.0 0.00 0.13 0.13 79 1011.5
20190918041504 55 175 9.0 18.0 0.00 0.13 0.13 79 1011.6
20190918041005 55 178 10.0 20.0 0.00 0.13 0.13 79 1011.7
20190918040504 54 174 10.0 21.0 0.00 0.13 0.13 79 1011.8
20190918040005 54 168 11.0 18.0 0.00 0.13 0.13 80 1011.7
20190918035504 54 174 7.0 16.0 0.00 0.13 0.13 80 1011.8
20190918035004 54 175 6.0 16.0 0.00 0.13 0.13 80 1011.7
20190918034504 54 173 7.0 16.0 0.00 0.13 0.13 80 1011.7
20190918034005 54 176 11.0 18.0 0.00 0.13 0.13 80 1011.7
20190918033504 54 179 8.0 14.0 0.00 0.13 0.13 80 1011.8
20190918033005 54 182 7.0 20.0 0.00 0.13 0.13 79 1011.8
20190918032504 54 184 11.0 20.0 0.00 0.13 0.13 79 1011.8
20190918032005 54 183 12.0 21.0 0.00 0.13 0.13 79 1011.8
20190918031504 54 176 9.0 20.0 0.00 0.13 0.13 79 1011.8
20190918031005 54 190 6.0 14.0 0.00 0.13 0.13 79 1011.8
20190918030505 55 173 6.0 15.0 0.00 0.13 0.13 79 1011.8
20190918030005 55 173 8.0 16.0 0.00 0.13 0.13 79 1012.0
20190918025505 55 177 10.0 18.0 0.00 0.13 0.13 79 1012.0
20190918025005 55 180 12.0 22.0 0.00 0.13 0.13 79 1012.1
20190918024504 55 176 10.0 17.0 0.00 0.13 0.13 80 1012.0
20190918024004 55 178 8.0 18.0 0.00 0.13 0.13 80 1012.2
20190918023504 55 184 9.0 17.0 0.00 0.13 0.13 80 1012.2
20190918023006 55 184 6.0 14.0 0.00 0.13 0.13 80 1012.3
20190918022504 55 184 6.0 15.0 0.00 0.13 0.13 80 1012.4
20190918022005 55 186 7.0 14.0 0.00 0.13 0.13 80 1012.4
20190918021505 55 197 4.0 12.0 0.00 0.13 0.13 80 1012.4
20190918021004 55 182 6.0 13.0 0.00 0.13 0.13 80 1012.5
20190918020505 55 190 7.0 17.0 0.00 0.13 0.13 80 1012.5
20190918020004 55 194 5.0 13.0 0.01 0.13 0.13 80 1012.4
20190918015504 55 180 7.0 13.0 0.01 0.13 0.13 80 1012.4
20190918015005 55 189 5.0 12.0 0.01 0.13 0.13 80 1012.5
20190918014504 55 174 5.0 9.0 0.01 0.13 0.13 80 1012.4
20190918014004 55 181 3.0 15.0 0.01 0.13 0.13 80 1012.6
20190918013504 55 161 6.0 14.0 0.01 0.13 0.13 80 1012.5
20190918013004 55 161 7.0 15.0 0.01 0.13 0.13 80 1012.5
20190918012504 55 167 6.0 15.0 0.01 0.13 0.13 80 1012.6
20190918012004 55 177 4.0 13.0 0.01 0.13 0.13 80 1012.8
20190918011504 55 190 4.0 13.0 0.01 0.13 0.13 80 1012.8
20190918011004 55 160 9.0 15.0 0.01 0.13 0.13 81 1012.7
20190918010504 55 175 5.0 13.0 0.01 0.13 0.13 81 1012.8
20190918010005 55 177 7.0 18.0 0.00 0.12 0.12 80 1012.9
20190918005504 55 179 7.0 15.0 0.00 0.12 0.12 80 1012.9
20190918005004 55 179 7.0 14.0 0.00 0.12 0.12 80 1013.2
20190918004504 55 178 6.0 16.0 0.00 0.12 0.12 79 1013.2
20190918004004 55 186 5.0 12.0 0.00 0.12 0.12 79 1013.2
20190918003504 55 182 8.0 16.0 0.00 0.12 0.12 77 1013.3
20190918003004 56 187 10.0 16.0 0.00 0.12 0.12 77 1013.4
20190918002504 56 180 6.0 16.0 0.00 0.12 0.12 76 1013.5
20190918002004 56 193 10.0 20.0 0.00 0.12 0.12 75 1013.6
20190918001504 56 190 4.0 14.0 0.00 0.12 0.12 75 1013.5
20190918001004 56 185 6.0 16.0 0.00 0.12 0.12 74 1013.5
20190918000504 56 179 13.0 23.0 0.00 0.12 0.12 72 1013.6
20190918000004 56 189 12.0 20.0 0.00 0.12 0.12 72 1013.4
20190917235503 56 190 14.0 24.0 0.00 0.12 0.12 72 1013.4
20190917235003 56 193 14.0 23.0 0.00 0.12 0.12 73 1013.2
20190917234504 56 189 13.0 26.0 0.00 0.12 0.12 72 1013.1
20190917234003 57 183 12.0 21.0 0.00 0.12 0.12 71 1013.0
20190917233503 57 181 13.0 22.0 0.00 0.12 0.12 71 1012.9
20190917233005 57 168 15.0 28.0 0.00 0.12 0.12 70 1012.9
20190917232504 57 183 17.0 26.0 0.00 0.12 0.12 71 1013.0
20190917232004 58 160 11.0 20.0 0.00 0.12 0.12 70 1013.2
20190917231504 58 172 14.0 21.0 0.00 0.12 0.12 71 1013.3
20190917231003 57 172 11.0 21.0 0.00 0.12 0.12 73 1013.3
20190917230504 56 176 16.0 25.0 0.00 0.12 0.12 72 1013.4
20190917230004 56 189 10.0 20.0 0.00 0.12 0.12 72 1013.5
20190917225504 56 177 12.0 21.0 0.00 0.12 0.12 73 1013.4
20190917225004 56 181 15.0 26.0 0.00 0.12 0.12 72 1013.4
20190917224504 56 191 14.0 23.0 0.00 0.12 0.12 73 1013.2
20190917224004 56 171 13.0 22.0 0.00 0.12 0.12 72 1013.3
20190917223503 56 186 14.0 25.0 0.00 0.12 0.12 73 1013.6
20190917223004 56 185 14.0 26.0 0.00 0.12 0.12 73 1013.6
20190917222503 56 189 13.0 25.0 0.00 0.12 0.12 73 1013.4
20190917222004 56 189 10.0 22.0 0.00 0.12 0.12 73 1013.3
20190917221504 56 188 14.0 22.0 0.00 0.12 0.12 73 1013.4
20190917221004 56 177 17.0 26.0 0.00 0.12 0.12 74 1013.4
20190917220504 56 180 10.0 23.0 0.00 0.12 0.12 77 1013.7
20190917220003 55 172 9.0 18.0 0.00 0.12 0.12 78 1013.8
20190917215504 55 173 9.0 17.0 0.00 0.12 0.12 80 1013.9
20190917215005 54 166 7.0 15.0 0.00 0.12 0.12 82 1013.9
20190917214504 54 156 3.0 13.0 0.00 0.12 0.12 82 1013.9
20190917214004 54 157 6.0 12.0 0.00 0.12 0.12 84 1014.0
20190917213504 53 148 4.0 10.0 0.00 0.12 0.12 85 1014.1
20190917213005 53 141 6.0 12.0 0.00 0.12 0.12 84 1014.1
20190917212504 53 170 3.0 12.0 0.00 0.12 0.12 84 1014.2
20190917212006 53 145 5.0 12.0 0.00 0.12 0.12 84 1014.1
20190917211504 53 162 8.0 15.0 0.00 0.12 0.12 83 1014.3
20190917211004 53 160 8.0 16.0 0.00 0.12 0.12 84 1014.3
20190917210504 53 165 9.0 22.0 0.00 0.12 0.12 84 1014.3
20190917210004 53 161 9.0 17.0 0.00 0.12 0.12 85 1014.3
20190917205504 52 167 6.0 13.0 0.00 0.12 0.12 87 1014.6
20190917205004 51 149 6.0 13.0 0.00 0.12 0.12 87 1014.7
20190917204504 51 153 9.0 16.0 0.00 0.12 0.12 88 1014.6
20190917204004 51 152 5.0 8.0 0.01 0.12 0.12 89 1014.8
20190917203504 51 157 3.0 10.0 0.01 0.12 0.12 89 1014.8
20190917203004 51 155 5.0 12.0 0.01 0.12 0.12 90 1014.9
20190917202503 51 155 4.0 13.0 0.01 0.12 0.12 90 1014.9
20190917202004 51 146 7.0 15.0 0.02 0.12 0.12 91 1014.8
20190917201505 50 150 8.0 14.0 0.03 0.12 0.12 91 1014.9
20190917201004 50 158 6.0 15.0 0.04 0.12 0.12 92 1014.9
20190917200504 50 148 5.0 9.0 0.04 0.12 0.12 92 1015.0
20190917200004 49 138 5.0 9.0 0.04 0.12 0.12 92 1015.1
20190917195503 49 150 5.0 12.0 0.05 0.12 0.12 92 1015.2
20190917195004 49 147 4.0 13.0 0.05 0.12 0.12 92 1015.0
20190917194504 49 157 5.0 12.0 0.05 0.12 0.12 92 1015.2
20190917194004 49 159 7.0 13.0 0.04 0.11 0.11 92 1015.4
20190917193503 49 140 7.0 13.0 0.04 0.11 0.11 92 1015.4
20190917193004 49 156 5.0 12.0 0.05 0.11 0.11 92 1015.5
20190917192504 49 150 5.0 12.0 0.06 0.11 0.11 91 1015.5
20190917192004 49 154 5.0 12.0 0.06 0.10 0.10 91 1015.4
20190917191504 49 151 6.0 12.0 0.05 0.09 0.09 90 1015.4
20190917191004 49 159 6.0 15.0 0.05 0.08 0.08 90 1015.4
20190917190504 49 166 9.0 14.0 0.06 0.08 0.08 90 1015.3
20190917190004 49 162 10.0 18.0 0.06 0.08 0.08 90 1015.3
20190917185504 49 158 7.0 16.0 0.06 0.07 0.07 90 1015.3
20190917185004 49 165 7.0 16.0 0.06 0.07 0.07 89 1015.3
20190917184504 49 158 6.0 17.0 0.06 0.07 0.07 89 1015.1
20190917184005 49 166 7.0 15.0 0.06 0.07 0.07 89 1015.1
20190917183503 49 163 7.0 16.0 0.06 0.07 0.07 89 1015.0
20190917183005 49 156 7.0 13.0 0.06 0.06 0.06 88 1015.3
20190917182504 49 162 7.0 14.0 0.05 0.05 0.05 87 1015.6
20190917182004 49 173 7.0 15.0 0.04 0.04 0.04 86 1015.7